Forside
METAR-TAF:

METAR-TAF

Lufthavne :

Mashhad, Iran

Breddekreds: 36-16N, længdekreds: 059-38E, højde: 989 m

Aktuelle vejr

Denne rapport blev lavet for 34 minutter siden, kl. 23:30 UTC
Vind 6 kt fra syd
Temperatur 16°C
Fugtighed 51%
Tryk 1022 hPa
Sigt 10 km eller mere
Spredte skyer i en højde af 4000 ft

METAR: OIMM 202330Z 18006KT 9999 SCT040 16/06 Q1022 A3019

Tid: 04:34 (00:04 UTC)

Vejrudsigter

Denne rapport blev lavet for 1 time og 4 minutter siden, kl. 23:00 UTC
Foreløbig gælder fra 21 på 00 UTC til 22 på 06 UTC
Vind 8 kt fra sydsydøst
Sigt: 8000 m
Nogle få skyer i en højde af 4000 ft
Midlertidig
fra 21 på 12 UTC til 21 på 18 UTC
Vind 17 kt fra østsydøst

TAF: OIMM 202300Z 2100/2206 15004MPS 8000 FEW040 TEMPO 2112/2118 11009MPS

Vejrobservationer og prognoser fra mere end 4000 lufthavne (METAR og TAF).

De gule og røde prikker repræsenterer de meteorologiske stationer.

Flyt musen over at se navnet på stationen.

Så klik over at se vejr observationer og prognoser.

At skifte det kort: Klik på de grønne knapper med et sort kors for at zoome ind; på den grønne knap med en bindestreg for at zoome ud; eller på de grønne pile for tilstødende kort.


METAR-TAF: